createdAt,value
2023-03-29T00:00:49.668Z,8.70
2023-03-29T00:03:16.980Z,8.80
2023-03-29T00:05:44.667Z,8.80
2023-03-29T00:08:14.403Z,8.80
2023-03-29T00:10:41.753Z,8.80
2023-03-29T00:13:08.373Z,8.90
2023-03-29T00:15:34.861Z,8.90
2023-03-29T00:18:01.366Z,8.90
2023-03-29T00:20:28.857Z,8.90
2023-03-29T00:22:55.631Z,9.00
2023-03-29T00:25:22.301Z,9.00
2023-03-29T00:27:48.905Z,9.00
2023-03-29T00:30:15.948Z,9.00
2023-03-29T00:32:42.950Z,8.90
2023-03-29T00:35:10.850Z,8.90
2023-03-29T00:37:38.024Z,8.90
2023-03-29T00:40:09.468Z,8.90
2023-03-29T00:42:36.360Z,9.00
2023-03-29T00:45:12.046Z,9.00
2023-03-29T00:47:43.570Z,9.10
2023-03-29T00:50:13.161Z,9.10
2023-03-29T00:52:41.117Z,9.10
2023-03-29T00:55:10.491Z,9.10
2023-03-29T00:57:38.185Z,9.20
2023-03-29T01:00:09.936Z,9.20
2023-03-29T01:02:39.630Z,9.20
2023-03-29T01:05:08.340Z,9.20
2023-03-29T01:07:37.990Z,9.20
2023-03-29T01:10:10.790Z,9.20
2023-03-29T01:12:39.986Z,9.20
2023-03-29T01:15:09.040Z,9.20
2023-03-29T01:17:35.835Z,9.30
2023-03-29T01:20:10.465Z,9.30
2023-03-29T01:22:51.328Z,9.30
2023-03-29T01:25:17.767Z,9.30
2023-03-29T01:27:56.102Z,9.30
2023-03-29T01:30:26.586Z,9.40
2023-03-29T01:33:02.845Z,9.40
2023-03-29T01:35:36.859Z,9.40
2023-03-29T01:38:07.356Z,9.40
2023-03-29T01:40:34.190Z,9.50
2023-03-29T01:43:19.320Z,9.50
2023-03-29T01:45:46.355Z,9.50
2023-03-29T01:48:35.996Z,9.50
2023-03-29T01:51:08.904Z,9.40
2023-03-29T01:53:42.238Z,9.30
2023-03-29T01:56:12.334Z,9.20
2023-03-29T01:58:40.877Z,9.20
2023-03-29T02:01:10.424Z,9.20
2023-03-29T02:03:42.340Z,9.10
2023-03-29T02:06:12.974Z,9.10
2023-03-29T02:08:40.595Z,9.10
2023-03-29T02:11:07.777Z,9.10
2023-03-29T02:13:35.190Z,9.10
2023-03-29T02:16:03.476Z,9.10
2023-03-29T02:18:30.540Z,9.10
2023-03-29T02:20:58.615Z,9.10
2023-03-29T02:23:28.556Z,9.10
2023-03-29T02:25:56.769Z,9.10
2023-03-29T02:28:24.363Z,9.20
2023-03-29T02:31:11.929Z,9.20
2023-03-29T02:33:53.187Z,9.20
2023-03-29T02:36:34.967Z,9.20
2023-03-29T02:39:03.801Z,9.20
2023-03-29T02:41:30.392Z,9.20
2023-03-29T02:43:58.308Z,9.10
2023-03-29T02:46:25.439Z,9.10
2023-03-29T02:48:52.783Z,9.20
2023-03-29T02:51:21.440Z,9.20
2023-03-29T02:53:53.129Z,9.20
2023-03-29T02:56:20.409Z,9.20
2023-03-29T02:58:46.993Z,9.20
2023-03-29T03:01:14.662Z,9.20
2023-03-29T03:03:41.196Z,9.20
2023-03-29T03:06:07.824Z,9.20
2023-03-29T03:08:34.296Z,9.20
2023-03-29T03:11:01.338Z,9.20
2023-03-29T03:13:28.001Z,9.20
2023-03-29T03:15:54.686Z,9.20
2023-03-29T03:18:21.966Z,9.20
2023-03-29T03:20:55.797Z,9.10
2023-03-29T03:23:22.836Z,9.00
2023-03-29T03:25:49.347Z,9.00
2023-03-29T03:28:15.838Z,9.00
2023-03-29T03:30:42.303Z,9.00
2023-03-29T03:33:09.094Z,9.00
2023-03-29T03:35:35.628Z,9.00
2023-03-29T03:38:02.114Z,9.00
2023-03-29T03:40:28.569Z,9.10
2023-03-29T03:42:55.346Z,9.10
2023-03-29T03:45:21.806Z,9.20
2023-03-29T03:47:48.353Z,9.20
2023-03-29T03:50:14.876Z,9.20
2023-03-29T03:52:41.541Z,9.10
2023-03-29T03:55:09.214Z,9.00
2023-03-29T03:57:38.860Z,8.90
2023-03-29T04:00:18.928Z,8.80
2023-03-29T04:02:46.497Z,8.70
2023-03-29T04:05:13.046Z,8.80
2023-03-29T04:07:40.236Z,8.90
2023-03-29T04:10:08.928Z,8.90
2023-03-29T04:12:35.791Z,8.90
2023-03-29T04:15:03.408Z,8.90
2023-03-29T04:17:29.894Z,9.00
2023-03-29T04:19:57.393Z,9.00
2023-03-29T04:22:25.193Z,9.00
2023-03-29T04:24:51.925Z,9.00
2023-03-29T04:27:18.409Z,9.00
2023-03-29T04:29:45.056Z,9.00
2023-03-29T04:32:14.537Z,9.00
2023-03-29T04:34:41.458Z,9.00
2023-03-29T04:37:10.332Z,9.00
2023-03-29T04:39:37.190Z,9.10
2023-03-29T04:42:05.015Z,9.10
2023-03-29T04:44:33.504Z,9.10
2023-03-29T04:47:00.736Z,9.10
2023-03-29T04:49:27.435Z,9.10
2023-03-29T04:51:54.306Z,9.10
2023-03-29T04:54:21.197Z,9.10
2023-03-29T04:56:47.791Z,9.10
2023-03-29T04:59:14.299Z,9.10
2023-03-29T05:01:40.850Z,9.10
2023-03-29T05:04:07.424Z,9.20
2023-03-29T05:06:33.946Z,9.20
2023-03-29T05:09:01.192Z,9.30
2023-03-29T05:11:27.814Z,9.30
2023-03-29T05:13:57.040Z,9.30
2023-03-29T05:16:24.609Z,9.30
2023-03-29T05:18:51.606Z,9.40
2023-03-29T05:21:18.417Z,9.40
2023-03-29T05:23:45.005Z,9.40
2023-03-29T05:26:14.456Z,9.40
2023-03-29T05:28:41.664Z,9.50
2023-03-29T05:31:08.707Z,9.50
2023-03-29T05:33:36.485Z,9.50
2023-03-29T05:36:07.938Z,9.50
2023-03-29T05:38:34.859Z,9.60
2023-03-29T05:41:02.157Z,9.60
2023-03-29T05:43:28.823Z,9.60
2023-03-29T05:45:56.206Z,9.60
2023-03-29T05:48:23.633Z,9.60
2023-03-29T05:50:51.362Z,9.60
2023-03-29T05:53:18.345Z,9.60
2023-03-29T05:55:44.859Z,9.60
2023-03-29T05:58:12.919Z,9.60
2023-03-29T06:00:39.957Z,9.60
2023-03-29T06:03:14.022Z,9.60
2023-03-29T06:05:49.563Z,9.60
2023-03-29T06:08:16.392Z,9.60
2023-03-29T06:10:43.322Z,9.60
2023-03-29T06:13:09.790Z,9.60
2023-03-29T06:15:36.918Z,9.60
2023-03-29T06:18:03.666Z,9.70
2023-03-29T06:20:30.318Z,9.70
2023-03-29T06:22:57.825Z,9.70
2023-03-29T06:25:24.912Z,9.80
2023-03-29T06:27:52.138Z,9.80
2023-03-29T06:30:19.179Z,9.90
2023-03-29T06:32:46.088Z,9.90
2023-03-29T06:35:12.705Z,10.00
2023-03-29T06:37:41.004Z,10.00
2023-03-29T06:40:09.261Z,10.00
2023-03-29T06:42:35.788Z,10.00
2023-03-29T06:45:02.536Z,10.00
2023-03-29T06:47:31.289Z,10.10
2023-03-29T06:49:57.958Z,10.10
2023-03-29T06:52:24.454Z,10.10
2023-03-29T06:54:51.013Z,10.20
2023-03-29T06:57:17.691Z,10.20
2023-03-29T06:59:44.283Z,10.20
2023-03-29T07:02:12.373Z,10.30
2023-03-29T07:04:39.444Z,10.30
2023-03-29T07:07:07.610Z,10.30
2023-03-29T07:09:35.923Z,10.30
2023-03-29T07:12:02.421Z,10.40
2023-03-29T07:14:29.889Z,10.40
2023-03-29T07:16:58.256Z,10.40
2023-03-29T07:19:27.183Z,10.40
2023-03-29T07:21:54.178Z,10.30
2023-03-29T07:24:21.261Z,10.10
2023-03-29T07:27:03.364Z,10.00
2023-03-29T07:29:31.420Z,9.90
2023-03-29T07:31:57.871Z,9.80
2023-03-29T07:34:24.441Z,9.90
2023-03-29T07:36:51.558Z,9.80
2023-03-29T07:39:18.262Z,9.80
2023-03-29T07:41:44.752Z,9.80
2023-03-29T07:44:11.310Z,9.80
2023-03-29T07:46:37.842Z,9.80
2023-03-29T07:49:04.373Z,9.90
2023-03-29T07:51:31.190Z,10.00
2023-03-29T07:53:57.698Z,10.10
2023-03-29T07:56:24.663Z,10.20
2023-03-29T07:58:51.649Z,10.20
2023-03-29T08:01:19.808Z,10.10
2023-03-29T08:03:46.569Z,10.10
2023-03-29T08:06:13.244Z,10.10
2023-03-29T08:08:39.752Z,10.20
2023-03-29T08:11:08.885Z,10.20
2023-03-29T08:13:35.734Z,10.20
2023-03-29T08:16:02.212Z,10.10
2023-03-29T08:18:28.678Z,10.10
2023-03-29T08:20:55.148Z,10.00
2023-03-29T08:23:21.620Z,10.00
2023-03-29T08:25:48.118Z,10.00
2023-03-29T08:28:14.602Z,10.00
2023-03-29T08:30:41.198Z,10.00
2023-03-29T08:33:07.840Z,10.10
2023-03-29T08:35:34.506Z,10.10
2023-03-29T08:38:01.032Z,10.20
2023-03-29T08:40:30.058Z,10.30
2023-03-29T08:43:08.822Z,10.40
2023-03-29T08:45:36.809Z,10.50
2023-03-29T08:48:23.564Z,10.70
2023-03-29T08:50:52.647Z,10.80
2023-03-29T08:53:22.739Z,10.80
2023-03-29T08:55:50.498Z,10.80
2023-03-29T08:58:20.070Z,10.90
2023-03-29T09:00:48.548Z,11.00
2023-03-29T09:03:19.729Z,11.30
2023-03-29T09:05:48.035Z,11.50
2023-03-29T09:08:19.144Z,11.70
2023-03-29T09:10:57.755Z,11.70
2023-03-29T09:13:30.322Z,11.70
2023-03-29T09:16:05.987Z,11.70
2023-03-29T09:18:38.199Z,11.80
2023-03-29T09:21:16.350Z,11.90
2023-03-29T09:24:03.148Z,11.90
2023-03-29T09:26:49.204Z,11.80
2023-03-29T09:29:40.865Z,11.80
2023-03-29T09:32:14.146Z,11.70
2023-03-29T09:34:44.591Z,11.50
2023-03-29T09:37:12.159Z,11.30
2023-03-29T09:39:39.835Z,11.30
2023-03-29T09:42:08.908Z,11.20
2023-03-29T09:44:47.638Z,11.20
2023-03-29T09:47:23.686Z,11.20
2023-03-29T09:49:52.106Z,11.30
2023-03-29T09:52:20.049Z,11.30
2023-03-29T09:54:46.578Z,11.30
2023-03-29T09:57:13.845Z,11.40
2023-03-29T09:59:40.344Z,11.50
2023-03-29T10:02:12.649Z,11.60
2023-03-29T10:04:41.906Z,11.80
2023-03-29T10:07:18.737Z,11.80
2023-03-29T10:09:45.775Z,11.90
2023-03-29T10:12:13.268Z,12.20
2023-03-29T10:14:47.918Z,12.60
2023-03-29T10:17:32.184Z,12.70
2023-03-29T10:20:03.765Z,12.90
2023-03-29T10:22:36.218Z,13.10
2023-03-29T10:25:03.509Z,13.30
2023-03-29T10:27:31.845Z,13.50
2023-03-29T10:29:59.342Z,13.60
2023-03-29T10:32:33.571Z,13.60
2023-03-29T10:35:09.203Z,13.60
2023-03-29T10:37:39.185Z,13.70
2023-03-29T10:40:06.465Z,14.00
2023-03-29T10:42:33.480Z,14.40
2023-03-29T10:45:00.097Z,14.70
2023-03-29T10:47:31.019Z,14.90
2023-03-29T10:50:01.469Z,14.70
2023-03-29T10:52:29.311Z,14.50
2023-03-29T10:54:56.361Z,14.40
2023-03-29T10:57:27.728Z,14.20
2023-03-29T10:59:54.224Z,14.00
2023-03-29T11:02:29.996Z,13.90
2023-03-29T11:05:15.569Z,13.80
2023-03-29T11:08:01.966Z,13.70
2023-03-29T11:10:47.504Z,13.60
2023-03-29T11:13:19.687Z,13.60
2023-03-29T11:15:46.396Z,13.70
2023-03-29T11:18:31.767Z,14.00
2023-03-29T11:20:59.098Z,14.20
2023-03-29T11:23:37.474Z,14.50
2023-03-29T11:26:13.451Z,14.80
2023-03-29T11:28:58.291Z,15.00
2023-03-29T11:31:35.892Z,15.10
2023-03-29T11:34:22.508Z,15.40
2023-03-29T11:37:03.444Z,15.60
2023-03-29T11:39:40.864Z,15.80
2023-03-29T11:42:09.304Z,16.00
2023-03-29T11:44:36.310Z,16.20
2023-03-29T11:47:08.107Z,16.30
2023-03-29T11:49:42.949Z,16.30
2023-03-29T11:52:14.966Z,16.30
2023-03-29T11:54:48.076Z,16.40
2023-03-29T11:57:20.276Z,16.30
2023-03-29T12:00:03.865Z,16.20
2023-03-29T12:02:33.401Z,16.10
2023-03-29T12:05:03.862Z,16.00
2023-03-29T12:07:37.082Z,16.00
2023-03-29T12:10:16.491Z,16.10
2023-03-29T12:12:45.752Z,16.10
2023-03-29T12:15:20.173Z,16.10
2023-03-29T12:17:50.424Z,16.00
2023-03-29T12:20:43.196Z,15.80
2023-03-29T12:23:12.687Z,15.70
2023-03-29T12:25:57.860Z,15.60
2023-03-29T12:28:42.985Z,15.40
2023-03-29T12:31:21.510Z,15.30
2023-03-29T12:34:15.891Z,15.20
2023-03-29T12:37:00.325Z,15.30
2023-03-29T12:39:27.513Z,15.30
2023-03-29T12:42:04.366Z,15.40
2023-03-29T12:44:32.498Z,15.40
2023-03-29T12:46:59.537Z,15.40
2023-03-29T12:49:33.934Z,15.40
2023-03-29T12:52:01.544Z,15.60
2023-03-29T12:54:30.981Z,15.70
2023-03-29T12:57:00.930Z,15.60
2023-03-29T12:59:33.694Z,15.50
2023-03-29T13:02:02.579Z,15.30
2023-03-29T13:04:47.752Z,15.20
2023-03-29T13:07:15.925Z,15.10
2023-03-29T13:09:53.109Z,15.00
2023-03-29T13:12:27.112Z,14.90
2023-03-29T13:14:59.233Z,15.00
2023-03-29T13:17:27.216Z,15.00
2023-03-29T13:20:13.692Z,15.10
2023-03-29T13:22:48.054Z,15.20
2023-03-29T13:25:33.503Z,15.20
2023-03-29T13:27:59.937Z,15.10
2023-03-29T13:30:26.561Z,15.20
2023-03-29T13:33:05.779Z,15.10
2023-03-29T13:35:39.001Z,15.20
2023-03-29T13:38:08.201Z,15.20
2023-03-29T13:40:42.018Z,15.20
2023-03-29T13:43:08.660Z,15.20
2023-03-29T13:45:35.574Z,15.10
2023-03-29T13:48:05.785Z,15.20
2023-03-29T13:50:39.885Z,15.20
2023-03-29T13:53:10.889Z,15.20
2023-03-29T13:55:42.131Z,15.20
2023-03-29T13:58:11.979Z,15.30
2023-03-29T14:00:59.556Z,15.30
2023-03-29T14:03:29.691Z,15.40
2023-03-29T14:05:58.501Z,15.70
2023-03-29T14:08:26.909Z,15.90
2023-03-29T14:10:53.930Z,16.10
2023-03-29T14:13:22.215Z,16.10
2023-03-29T14:15:57.158Z,16.20
2023-03-29T14:18:25.715Z,16.30
2023-03-29T14:20:54.801Z,16.40
2023-03-29T14:23:23.507Z,16.40
2023-03-29T14:25:50.053Z,16.50
2023-03-29T14:28:26.939Z,16.60
2023-03-29T14:30:53.861Z,16.70
2023-03-29T14:33:30.026Z,16.70
2023-03-29T14:35:58.163Z,16.80
2023-03-29T14:38:25.322Z,16.70
2023-03-29T14:40:51.861Z,16.70
2023-03-29T14:43:20.003Z,16.70
2023-03-29T14:45:47.202Z,16.70
2023-03-29T14:48:14.324Z,16.70
2023-03-29T14:50:41.561Z,16.70
2023-03-29T14:53:08.448Z,16.70
2023-03-29T14:55:36.514Z,16.80
2023-03-29T14:58:03.043Z,16.80
2023-03-29T15:00:41.365Z,16.90
2023-03-29T15:03:12.907Z,16.90
2023-03-29T15:05:40.928Z,16.90
2023-03-29T15:08:10.210Z,16.90
2023-03-29T15:10:37.859Z,16.90
2023-03-29T15:13:04.899Z,16.90
2023-03-29T15:15:36.705Z,16.90
2023-03-29T15:18:06.610Z,16.80
2023-03-29T15:20:43.384Z,16.80
2023-03-29T15:23:16.235Z,16.70
2023-03-29T15:25:49.129Z,16.70
2023-03-29T15:28:35.333Z,16.60
2023-03-29T15:33:37.294Z,16.60
2023-03-29T15:36:05.386Z,16.60
2023-03-29T15:38:43.082Z,16.60
2023-03-29T15:41:11.725Z,16.60
2023-03-29T15:43:38.237Z,16.60
2023-03-29T15:46:05.310Z,16.60
2023-03-29T15:48:33.447Z,16.60
2023-03-29T15:51:03.809Z,16.60
2023-03-29T15:53:32.152Z,16.60
2023-03-29T15:56:00.046Z,16.60
2023-03-29T15:58:28.022Z,16.70
2023-03-29T16:00:59.951Z,16.70
2023-03-29T16:03:29.593Z,16.60
2023-03-29T16:05:56.837Z,16.60
2023-03-29T16:08:24.063Z,16.60
2023-03-29T16:10:50.877Z,16.50
2023-03-29T16:13:17.532Z,16.50
2023-03-29T16:15:44.048Z,16.40
2023-03-29T16:18:10.569Z,16.40
2023-03-29T16:20:38.166Z,16.30
2023-03-29T16:23:09.120Z,16.20
2023-03-29T16:25:37.281Z,16.20
2023-03-29T16:28:05.022Z,16.10
2023-03-29T16:30:31.803Z,16.00
2023-03-29T16:32:58.479Z,15.90
2023-03-29T16:35:29.517Z,15.80
2023-03-29T16:37:56.307Z,15.60
2023-03-29T16:40:23.682Z,15.30
2023-03-29T16:42:50.698Z,15.10
2023-03-29T16:45:17.962Z,14.80
2023-03-29T16:47:44.572Z,14.70
2023-03-29T16:50:15.299Z,14.70
2023-03-29T16:52:41.901Z,14.70
2023-03-29T16:55:09.525Z,14.70
2023-03-29T16:57:36.012Z,14.60
2023-03-29T17:00:03.804Z,14.50
2023-03-29T17:02:30.373Z,14.40
2023-03-29T17:04:57.302Z,14.40
2023-03-29T17:07:23.817Z,14.40
2023-03-29T17:09:51.229Z,14.30
2023-03-29T17:12:18.862Z,14.30
2023-03-29T17:14:45.376Z,14.30
2023-03-29T17:17:11.832Z,14.20
2023-03-29T17:19:38.302Z,14.20
2023-03-29T17:22:04.766Z,14.20
2023-03-29T17:24:31.258Z,14.20
2023-03-29T17:26:57.766Z,14.20
2023-03-29T17:29:24.274Z,14.20
2023-03-29T17:31:50.998Z,14.10
2023-03-29T17:34:18.933Z,14.10
2023-03-29T17:36:45.960Z,14.10
2023-03-29T17:39:15.134Z,14.10
2023-03-29T17:41:42.631Z,14.10
2023-03-29T17:44:09.206Z,14.10
2023-03-29T17:46:35.775Z,14.10
2023-03-29T17:49:03.856Z,14.20
2023-03-29T17:51:30.360Z,14.20
2023-03-29T17:53:57.690Z,14.10
2023-03-29T17:56:24.414Z,14.10
2023-03-29T17:58:50.936Z,14.00
2023-03-29T18:01:19.394Z,13.90
2023-03-29T18:03:47.615Z,13.80
2023-03-29T18:06:16.236Z,13.80
2023-03-29T18:08:42.732Z,13.70
2023-03-29T18:11:11.486Z,13.60
2023-03-29T18:13:39.658Z,13.60
2023-03-29T18:16:07.217Z,13.60
2023-03-29T18:18:34.274Z,13.60
2023-03-29T18:21:01.094Z,13.50
2023-03-29T18:23:27.594Z,13.40
2023-03-29T18:26:02.827Z,13.40
2023-03-29T18:28:30.415Z,13.40
2023-03-29T18:30:57.170Z,13.30
2023-03-29T18:33:24.044Z,13.40
2023-03-29T18:35:51.291Z,13.30
2023-03-29T18:38:18.779Z,13.30
2023-03-29T18:40:48.539Z,13.30
2023-03-29T18:43:15.086Z,13.40
2023-03-29T18:45:42.655Z,13.40
2023-03-29T18:48:09.201Z,13.40
2023-03-29T18:50:36.073Z,13.50
2023-03-29T18:53:02.647Z,13.50
2023-03-29T18:55:29.320Z,13.50
2023-03-29T18:57:55.889Z,13.50
2023-03-29T19:00:22.816Z,13.50
2023-03-29T19:02:49.363Z,13.40
2023-03-29T19:05:16.028Z,13.50
2023-03-29T19:07:42.496Z,13.50
2023-03-29T19:10:09.112Z,13.50
2023-03-29T19:12:35.943Z,13.50
2023-03-29T19:15:02.420Z,13.50
2023-03-29T19:17:29.128Z,13.50
2023-03-29T19:19:56.676Z,13.60
2023-03-29T19:22:23.405Z,13.60
2023-03-29T19:24:49.971Z,13.70
2023-03-29T19:27:16.469Z,13.70
2023-03-29T19:29:42.916Z,13.70
2023-03-29T19:32:09.482Z,13.70
2023-03-29T19:34:36.074Z,13.70
2023-03-29T19:37:02.585Z,13.60
2023-03-29T19:39:29.651Z,13.50
2023-03-29T19:41:56.494Z,13.50
2023-03-29T19:44:25.819Z,13.40
2023-03-29T19:46:52.422Z,13.40
2023-03-29T19:49:19.042Z,13.30
2023-03-29T19:51:45.553Z,13.20
2023-03-29T19:54:13.713Z,13.10
2023-03-29T19:56:42.888Z,13.00
2023-03-29T19:59:11.015Z,12.90
2023-03-29T20:01:39.154Z,12.80
2023-03-29T20:04:06.007Z,12.80
2023-03-29T20:06:32.632Z,12.90
2023-03-29T20:08:59.293Z,12.80
2023-03-29T20:11:25.954Z,12.70
2023-03-29T20:13:52.436Z,12.70
2023-03-29T20:16:19.199Z,12.70
2023-03-29T20:18:46.330Z,12.80
2023-03-29T20:21:16.255Z,12.70
2023-03-29T20:23:43.130Z,12.60
2023-03-29T20:26:10.492Z,12.50
2023-03-29T20:28:39.765Z,12.50
2023-03-29T20:31:07.549Z,12.50
2023-03-29T20:33:34.060Z,12.50
2023-03-29T20:36:00.814Z,12.50
2023-03-29T20:38:27.410Z,12.50
2023-03-29T20:40:55.145Z,12.40
2023-03-29T20:43:21.618Z,12.40
2023-03-29T20:45:53.453Z,12.40
2023-03-29T20:48:24.664Z,12.40
2023-03-29T20:50:51.375Z,12.30
2023-03-29T20:53:20.238Z,12.30
2023-03-29T20:55:47.581Z,12.30
2023-03-29T20:58:15.508Z,12.30
2023-03-29T21:00:41.965Z,12.30
2023-03-29T21:03:08.798Z,12.30
2023-03-29T21:05:35.514Z,12.30
2023-03-29T21:08:03.671Z,12.30
2023-03-29T21:10:30.719Z,12.30
2023-03-29T21:13:00.008Z,12.30
2023-03-29T21:15:27.624Z,12.30
2023-03-29T21:17:54.272Z,12.40
2023-03-29T21:20:21.061Z,12.40
2023-03-29T21:22:47.532Z,12.40
2023-03-29T21:25:17.153Z,12.40
2023-03-29T21:27:43.697Z,12.40
2023-03-29T21:30:10.843Z,12.40
2023-03-29T21:32:37.414Z,12.40
2023-03-29T21:35:04.105Z,12.40
2023-03-29T21:37:30.653Z,12.40
2023-03-29T21:39:57.106Z,12.40
2023-03-29T21:42:23.632Z,12.30
2023-03-29T21:44:50.222Z,12.40
2023-03-29T21:47:16.703Z,12.30
2023-03-29T21:49:44.246Z,12.40
2023-03-29T21:52:10.815Z,12.40
2023-03-29T21:54:37.258Z,12.30
2023-03-29T21:57:03.903Z,12.40
2023-03-29T21:59:30.726Z,12.40
2023-03-29T22:01:57.398Z,12.30
2023-03-29T22:04:35.902Z,12.40
2023-03-29T22:07:02.917Z,12.40
2023-03-29T22:09:29.467Z,12.50
2023-03-29T22:11:56.751Z,12.50
2023-03-29T22:14:23.221Z,12.50
2023-03-29T22:16:49.818Z,12.60
2023-03-29T22:19:16.427Z,12.60
2023-03-29T22:21:44.002Z,12.60
2023-03-29T22:24:10.504Z,12.60
2023-03-29T22:26:37.180Z,12.60
2023-03-29T22:29:03.788Z,12.60
2023-03-29T22:31:31.124Z,12.60
2023-03-29T22:33:58.347Z,12.60
2023-03-29T22:36:26.415Z,12.60
2023-03-29T22:38:53.110Z,12.60
2023-03-29T22:41:20.388Z,12.70
2023-03-29T22:43:46.960Z,12.60
2023-03-29T22:46:13.899Z,12.60
2023-03-29T22:48:40.685Z,12.60
2023-03-29T22:51:07.349Z,12.60
2023-03-29T22:53:33.901Z,12.70
2023-03-29T22:56:00.733Z,12.60
2023-03-29T22:58:29.174Z,12.70
2023-03-29T23:00:56.056Z,12.70
2023-03-29T23:03:23.147Z,12.70
2023-03-29T23:05:54.858Z,12.70
2023-03-29T23:08:21.856Z,12.70
2023-03-29T23:10:48.467Z,12.80
2023-03-29T23:13:20.495Z,12.80
2023-03-29T23:15:48.237Z,12.80
2023-03-29T23:18:20.830Z,12.80
2023-03-29T23:20:51.648Z,12.80
2023-03-29T23:23:19.587Z,12.90
2023-03-29T23:25:47.409Z,12.90
2023-03-29T23:28:14.836Z,12.90
2023-03-29T23:30:41.654Z,12.90
2023-03-29T23:33:10.243Z,12.90
2023-03-29T23:35:37.504Z,13.00
2023-03-29T23:38:05.411Z,13.00
2023-03-29T23:40:33.036Z,13.00
2023-03-29T23:42:59.681Z,13.00
2023-03-29T23:45:29.473Z,13.00
2023-03-29T23:47:57.019Z,13.00
2023-03-29T23:50:23.589Z,13.00
2023-03-29T23:52:51.306Z,13.10
2023-03-29T23:55:17.800Z,13.10
2023-03-29T23:57:44.332Z,13.10
